createdAt,value
2019-04-20T00:01:05.436Z,13.90
2019-04-20T00:03:41.717Z,18.50
2019-04-20T00:06:11.092Z,15.28
2019-04-20T00:08:44.690Z,13.60
2019-04-20T00:11:27.573Z,14.03
2019-04-20T00:14:00.149Z,14.37
2019-04-20T00:16:25.182Z,12.90
2019-04-20T00:18:59.105Z,14.43
2019-04-20T00:21:46.948Z,12.43
2019-04-20T00:24:23.392Z,15.33
2019-04-20T00:27:28.435Z,16.00
2019-04-20T00:29:41.156Z,14.70
2019-04-20T00:32:09.821Z,16.70
2019-04-20T00:34:36.457Z,13.47
2019-04-20T00:37:05.214Z,17.60
2019-04-20T00:39:36.096Z,14.03
2019-04-20T00:42:11.125Z,14.95
2019-04-20T00:44:44.092Z,13.03
2019-04-20T00:47:27.499Z,15.90
2019-04-20T00:49:57.865Z,15.00
2019-04-20T00:52:33.155Z,12.87
2019-04-20T00:54:53.914Z,14.53
2019-04-20T00:57:39.400Z,13.60
2019-04-20T01:00:17.665Z,14.13
2019-04-20T01:02:43.320Z,16.32
2019-04-20T01:05:23.389Z,13.37
2019-04-20T01:07:59.892Z,14.30
2019-04-20T01:10:35.372Z,15.32
2019-04-20T01:13:06.928Z,13.70
2019-04-20T01:15:46.354Z,17.75
2019-04-20T01:18:10.748Z,14.30
2019-04-20T01:20:43.022Z,17.62
2019-04-20T01:23:19.035Z,13.13
2019-04-20T01:25:52.008Z,15.37
2019-04-20T01:28:37.541Z,13.83
2019-04-20T01:31:06.724Z,14.68
2019-04-20T01:33:40.238Z,15.10
2019-04-20T01:36:22.388Z,15.30
2019-04-20T01:38:49.825Z,16.43
2019-04-20T01:41:07.429Z,13.40
2019-04-20T01:43:39.511Z,13.67
2019-04-20T01:46:15.613Z,15.40
2019-04-20T01:48:43.447Z,16.53
2019-04-20T01:51:22.456Z,14.63
2019-04-20T01:54:06.775Z,14.27
2019-04-20T01:56:40.436Z,14.97
2019-04-20T01:59:38.500Z,12.33
2019-04-20T02:02:11.627Z,14.63
2019-04-20T02:05:16.675Z,14.70
2019-04-20T02:07:47.544Z,17.95
2019-04-20T02:10:23.023Z,13.30
2019-04-20T02:12:57.382Z,15.20
2019-04-20T02:15:32.543Z,14.17
2019-04-20T02:18:10.270Z,12.10
2019-04-20T02:20:51.487Z,16.00
2019-04-20T02:23:16.074Z,15.93
2019-04-20T02:25:35.826Z,14.75
2019-04-20T02:28:22.330Z,14.10
2019-04-20T02:31:15.751Z,17.97
2019-04-20T02:33:47.166Z,15.67
2019-04-20T02:36:38.227Z,16.70
2019-04-20T02:41:44.283Z,16.03
2019-04-20T02:44:35.005Z,15.93
2019-04-20T02:47:08.433Z,14.67
2019-04-20T02:49:34.265Z,16.23
2019-04-20T02:51:55.889Z,13.80
2019-04-20T02:54:28.482Z,20.43
2019-04-20T02:57:06.816Z,17.40
2019-04-20T03:01:55.266Z,14.57
2019-04-20T03:04:23.393Z,17.13
2019-04-20T03:06:58.413Z,12.37
2019-04-20T03:09:41.785Z,15.73
2019-04-20T03:12:17.004Z,15.63
2019-04-20T03:14:40.094Z,18.03
2019-04-20T03:17:21.167Z,15.37
2019-04-20T03:19:48.728Z,15.10
2019-04-20T03:22:39.306Z,16.37
2019-04-20T03:25:06.911Z,16.73
2019-04-20T03:27:37.170Z,17.00
2019-04-20T03:33:23.885Z,17.60
2019-04-20T03:35:44.943Z,16.23
2019-04-20T03:38:10.399Z,16.93
2019-04-20T03:40:37.531Z,17.20
2019-04-20T03:42:56.989Z,18.53
2019-04-20T03:45:39.573Z,20.13
2019-04-20T03:48:16.026Z,16.13
2019-04-20T03:50:56.689Z,18.83
2019-04-20T03:53:27.806Z,14.50
2019-04-20T03:56:31.003Z,17.87
2019-04-20T03:59:10.376Z,15.50
2019-04-20T04:02:25.470Z,16.33
2019-04-20T04:04:54.519Z,15.47
2019-04-20T04:07:21.506Z,14.30
2019-04-20T04:09:58.632Z,16.70
2019-04-20T04:12:58.878Z,17.43
2019-04-20T04:15:31.693Z,16.73
2019-04-20T04:18:07.509Z,17.03
2019-04-20T04:20:48.943Z,16.37
2019-04-20T04:23:28.651Z,12.83
2019-04-20T04:26:05.089Z,13.93
2019-04-20T04:28:37.400Z,15.03
2019-04-20T04:36:15.489Z,16.40
2019-04-20T04:38:53.138Z,16.47
2019-04-20T04:41:37.962Z,16.47
2019-04-20T04:43:53.805Z,17.67
2019-04-20T04:46:33.953Z,16.83
2019-04-20T04:49:09.551Z,23.20
2019-04-20T04:51:44.601Z,21.50
2019-04-20T04:54:16.591Z,16.62
2019-04-20T04:56:41.914Z,18.23
2019-04-20T04:59:12.941Z,16.67
2019-04-20T05:01:48.873Z,17.33
2019-04-20T05:04:43.307Z,23.90
2019-04-20T05:07:05.130Z,26.20
2019-04-20T05:09:25.489Z,18.27
2019-04-20T05:12:02.799Z,25.87
2019-04-20T05:14:40.583Z,25.90
2019-04-20T05:17:20.802Z,17.57
2019-04-20T05:19:52.954Z,18.10
2019-04-20T05:22:32.228Z,22.33
2019-04-20T05:25:09.124Z,18.57
2019-04-20T05:27:46.499Z,22.40
2019-04-20T05:29:59.535Z,30.37
2019-04-20T05:32:41.713Z,24.45
2019-04-20T05:35:27.095Z,24.17
2019-04-20T05:38:02.751Z,30.45
2019-04-20T05:40:35.316Z,24.93
2019-04-20T05:43:05.799Z,24.25
2019-04-20T05:45:35.655Z,24.07
2019-04-20T05:48:11.848Z,24.73
2019-04-20T05:50:42.470Z,21.90
2019-04-20T05:53:22.169Z,26.63
2019-04-20T05:55:49.306Z,24.53
2019-04-20T05:58:26.139Z,25.53
2019-04-20T06:01:02.810Z,25.73
2019-04-20T06:03:35.586Z,28.75
2019-04-20T06:06:22.154Z,26.00
2019-04-20T06:11:07.981Z,26.10
2019-04-20T06:14:02.380Z,26.50
2019-04-20T06:16:56.848Z,25.97
2019-04-20T06:19:34.310Z,31.63
2019-04-20T06:22:11.368Z,27.63
2019-04-20T06:25:17.057Z,30.17
2019-04-20T06:27:36.802Z,32.83
2019-04-20T06:30:09.775Z,32.97
2019-04-20T06:33:28.573Z,32.83
2019-04-20T06:36:13.381Z,30.43
2019-04-20T06:38:43.112Z,28.60
2019-04-20T06:41:06.304Z,28.93
2019-04-20T06:43:35.929Z,27.35
2019-04-20T06:46:10.315Z,26.77
2019-04-20T06:48:40.144Z,29.72
2019-04-20T06:51:09.182Z,32.93
2019-04-20T06:53:47.500Z,30.90
2019-04-20T06:56:31.147Z,32.30
2019-04-20T06:59:05.117Z,31.73
2019-04-20T07:01:43.275Z,25.93
2019-04-20T07:04:21.162Z,27.43
2019-04-20T07:09:26.834Z,30.48
2019-04-20T07:11:47.818Z,28.93
2019-04-20T07:14:02.902Z,36.93
2019-04-20T07:17:24.529Z,31.40
2019-04-20T07:20:04.243Z,29.52
2019-04-20T07:22:46.662Z,34.23
2019-04-20T07:25:18.961Z,26.52
2019-04-20T07:27:53.720Z,28.23
2019-04-20T07:30:21.468Z,24.83
2019-04-20T07:32:59.735Z,26.63
2019-04-20T07:35:35.618Z,28.53
2019-04-20T07:38:25.555Z,28.67
2019-04-20T07:40:38.320Z,28.20
2019-04-20T07:43:07.668Z,30.70
2019-04-20T07:45:45.044Z,27.98
2019-04-20T07:48:20.669Z,26.40
2019-04-20T07:50:45.008Z,27.98
2019-04-20T07:53:25.692Z,23.60
2019-04-20T07:56:05.145Z,29.77
2019-04-20T07:58:25.151Z,33.83
2019-04-20T08:01:23.744Z,27.47
2019-04-20T08:03:55.596Z,22.77
2019-04-20T08:06:36.764Z,23.67
2019-04-20T08:09:14.546Z,26.40
2019-04-20T08:11:59.619Z,21.37
2019-04-20T08:14:30.207Z,27.90
2019-04-20T08:19:28.654Z,23.60
2019-04-20T08:22:08.027Z,24.27
2019-04-20T08:24:32.548Z,26.30
2019-04-20T08:26:59.005Z,21.70
2019-04-20T08:29:45.109Z,29.87
2019-04-20T08:32:31.230Z,23.60
2019-04-20T08:35:10.051Z,25.60
2019-04-20T08:37:45.905Z,24.60
2019-04-20T08:40:15.061Z,27.87
2019-04-20T08:43:00.640Z,24.90
2019-04-20T08:45:17.985Z,24.07
2019-04-20T08:47:51.789Z,26.73
2019-04-20T08:50:22.456Z,26.53
2019-04-20T08:55:23.897Z,23.42
2019-04-20T08:57:49.271Z,26.57
2019-04-20T09:00:49.986Z,19.10
2019-04-20T09:03:25.369Z,18.33
2019-04-20T09:06:03.556Z,18.60
2019-04-20T09:08:41.444Z,19.90
2019-04-20T09:11:21.861Z,20.97
2019-04-20T09:13:43.609Z,21.57
2019-04-20T09:16:08.748Z,23.43
2019-04-20T09:18:51.424Z,21.80
2019-04-20T09:21:29.641Z,19.20
2019-04-20T09:24:16.160Z,20.07
2019-04-20T09:26:44.649Z,23.43
2019-04-20T09:29:12.551Z,24.32
2019-04-20T09:32:08.170Z,22.80
2019-04-20T09:34:51.673Z,22.17
2019-04-20T09:37:33.495Z,23.30
2019-04-20T09:40:20.233Z,24.63
2019-04-20T09:42:41.138Z,16.17
2019-04-20T09:45:22.184Z,21.43
2019-04-20T09:47:50.245Z,18.07
2019-04-20T09:50:38.777Z,20.00
2019-04-20T09:53:08.987Z,24.53
2019-04-20T09:55:37.798Z,12.03
2019-04-20T09:58:12.685Z,14.23
2019-04-20T10:00:59.494Z,12.73
2019-04-20T10:03:18.531Z,15.63
2019-04-20T10:05:53.794Z,14.50
2019-04-20T10:08:26.091Z,14.83
2019-04-20T10:11:21.434Z,13.88
2019-04-20T10:13:54.627Z,12.37
2019-04-20T10:16:26.074Z,14.47
2019-04-20T10:19:02.583Z,14.00
2019-04-20T10:21:38.949Z,12.00
2019-04-20T10:24:12.558Z,10.83
2019-04-20T10:26:54.495Z,14.67
2019-04-20T10:30:04.697Z,15.90
2019-04-20T10:32:53.933Z,12.60
2019-04-20T10:35:43.598Z,15.07
2019-04-20T10:38:31.051Z,14.40
2019-04-20T10:41:16.631Z,15.97
2019-04-20T10:43:42.863Z,14.85
2019-04-20T10:46:15.083Z,14.07
2019-04-20T10:48:50.811Z,12.57
2019-04-20T10:51:19.758Z,10.67
2019-04-20T10:53:54.183Z,8.00
2019-04-20T10:56:25.685Z,11.57
2019-04-20T10:58:57.914Z,11.87
2019-04-20T11:01:29.642Z,9.43
2019-04-20T11:04:00.848Z,14.30
2019-04-20T11:06:50.288Z,9.03
2019-04-20T11:09:29.482Z,9.63
2019-04-20T11:12:02.158Z,10.03
2019-04-20T11:14:37.227Z,18.23
2019-04-20T11:17:06.600Z,8.63
2019-04-20T11:19:39.220Z,12.00
2019-04-20T11:22:17.776Z,13.13
2019-04-20T11:24:52.446Z,12.27
2019-04-20T11:27:28.006Z,10.03
2019-04-20T11:30:00.230Z,10.07
2019-04-20T11:32:35.942Z,17.15
2019-04-20T11:35:18.062Z,19.50
2019-04-20T11:37:49.038Z,10.80
2019-04-20T11:40:24.105Z,10.17
2019-04-20T11:42:57.421Z,11.20
2019-04-20T11:45:38.494Z,11.97
2019-04-20T11:48:11.556Z,13.17
2019-04-20T11:50:43.484Z,12.50
2019-04-20T11:53:15.358Z,10.57
2019-04-20T11:55:46.920Z,14.70
2019-04-20T11:58:19.615Z,9.90
2019-04-20T12:01:01.237Z,6.50
2019-04-20T12:03:35.401Z,11.57
2019-04-20T12:06:05.024Z,9.50
2019-04-20T12:08:36.036Z,10.63
2019-04-20T12:11:23.127Z,10.07
2019-04-20T12:13:54.497Z,9.50
2019-04-20T12:16:25.774Z,8.10
2019-04-20T12:18:56.881Z,8.80
2019-04-20T12:21:28.670Z,10.30
2019-04-20T12:24:10.225Z,11.20
2019-04-20T12:26:44.841Z,13.80
2019-04-20T12:30:09.981Z,9.20
2019-04-20T12:33:02.124Z,12.60
2019-04-20T12:35:40.260Z,9.78
2019-04-20T12:38:16.940Z,7.27
2019-04-20T12:40:48.422Z,9.63
2019-04-20T12:43:23.606Z,8.57
2019-04-20T12:45:55.750Z,6.67
2019-04-20T12:48:26.706Z,10.93
2019-04-20T12:51:03.804Z,7.43
2019-04-20T12:53:34.844Z,7.60
2019-04-20T12:56:08.643Z,11.13
2019-04-20T12:58:43.333Z,10.17
2019-04-20T13:01:14.262Z,8.70
2019-04-20T13:03:50.307Z,10.27
2019-04-20T13:06:25.563Z,13.90
2019-04-20T13:08:58.863Z,8.63
2019-04-20T13:11:52.210Z,10.83
2019-04-20T13:15:34.185Z,9.97
2019-04-20T13:18:07.311Z,9.05
2019-04-20T13:20:39.736Z,10.20
2019-04-20T13:23:11.450Z,7.95
2019-04-20T13:25:45.143Z,9.57
2019-04-20T13:28:16.902Z,11.73
2019-04-20T13:30:48.093Z,8.57
2019-04-20T13:33:19.805Z,11.80
2019-04-20T13:35:52.232Z,10.57
2019-04-20T13:38:30.202Z,7.90
2019-04-20T13:41:02.436Z,9.50
2019-04-20T13:43:33.284Z,9.73
2019-04-20T13:46:04.956Z,11.87
2019-04-20T13:48:39.318Z,7.03
2019-04-20T13:51:12.610Z,8.93
2019-04-20T13:53:47.673Z,8.53
2019-04-20T13:56:21.641Z,10.30
2019-04-20T13:59:23.549Z,8.60
2019-04-20T14:02:15.547Z,11.57
2019-04-20T14:05:02.762Z,8.53
2019-04-20T14:07:35.605Z,12.63
2019-04-20T14:10:07.650Z,8.80
2019-04-20T14:12:45.129Z,6.60
2019-04-20T14:15:13.135Z,10.35
2019-04-20T14:17:48.982Z,8.37
2019-04-20T14:20:22.007Z,9.57
2019-04-20T14:22:56.866Z,8.63
2019-04-20T14:25:33.252Z,8.53
2019-04-20T14:28:05.264Z,9.33
2019-04-20T14:30:37.936Z,11.00
2019-04-20T14:33:08.910Z,7.83
2019-04-20T14:35:42.988Z,8.63
2019-04-20T14:38:13.947Z,10.60
2019-04-20T14:40:46.200Z,8.80
2019-04-20T14:43:35.248Z,8.97
2019-04-20T14:46:06.872Z,6.47
2019-04-20T14:48:38.565Z,10.67
2019-04-20T14:51:09.994Z,7.77
2019-04-20T14:53:43.273Z,8.33
2019-04-20T14:56:15.652Z,8.50
2019-04-20T14:58:55.682Z,7.95
2019-04-20T15:01:34.681Z,8.23
2019-04-20T15:04:16.670Z,6.40
2019-04-20T15:06:48.678Z,10.77
2019-04-20T15:09:20.937Z,9.80
2019-04-20T15:11:56.830Z,7.97
2019-04-20T15:14:29.049Z,20.63
2019-04-20T15:17:04.769Z,10.93
2019-04-20T15:19:54.846Z,12.50
2019-04-20T15:22:43.357Z,7.83
2019-04-20T15:25:19.577Z,12.90
2019-04-20T15:27:50.429Z,7.40
2019-04-20T15:30:26.561Z,7.10
2019-04-20T15:33:01.047Z,7.83
2019-04-20T15:35:30.404Z,7.80
2019-04-20T15:38:05.155Z,7.10
2019-04-20T15:40:37.155Z,15.10
2019-04-20T15:43:16.807Z,9.83
2019-04-20T15:45:47.536Z,11.27
2019-04-20T15:48:19.921Z,9.43
2019-04-20T15:50:56.117Z,7.43
2019-04-20T15:53:29.710Z,10.03
2019-04-20T15:56:09.576Z,8.30
2019-04-20T15:58:40.755Z,10.27
2019-04-20T16:01:12.222Z,11.13
2019-04-20T16:03:51.082Z,10.07
2019-04-20T16:06:23.549Z,8.87
2019-04-20T16:09:02.093Z,12.47
2019-04-20T16:11:33.071Z,8.10
2019-04-20T16:14:07.344Z,6.27
2019-04-20T16:16:40.395Z,8.13
2019-04-20T16:19:25.864Z,9.23
2019-04-20T16:21:49.956Z,8.43
2019-04-20T16:24:30.737Z,8.90
2019-04-20T16:27:27.656Z,11.30
2019-04-20T16:29:59.926Z,14.33
2019-04-20T16:32:36.454Z,8.03
2019-04-20T16:35:11.040Z,7.60
2019-04-20T16:37:46.840Z,9.97
2019-04-20T16:40:19.965Z,11.07
2019-04-20T16:42:56.333Z,9.83
2019-04-20T16:45:27.571Z,10.10
2019-04-20T16:48:03.856Z,13.77
2019-04-20T16:50:35.200Z,9.57
2019-04-20T16:53:06.640Z,10.40
2019-04-20T16:55:38.896Z,9.77
2019-04-20T16:58:10.080Z,11.17
2019-04-20T17:00:41.376Z,12.35
2019-04-20T17:03:13.246Z,9.67
2019-04-20T17:05:51.295Z,13.50
2019-04-20T17:08:21.314Z,8.27
2019-04-20T17:10:55.853Z,9.23
2019-04-20T17:13:40.529Z,14.13
2019-04-20T17:16:06.237Z,11.20
2019-04-20T17:18:39.335Z,10.27
2019-04-20T17:21:22.803Z,9.70
2019-04-20T17:23:49.166Z,11.50
2019-04-20T17:26:30.582Z,9.80
2019-04-20T17:29:19.956Z,7.25
2019-04-20T17:32:11.695Z,8.93
2019-04-20T17:35:00.477Z,9.80
2019-04-20T17:37:20.596Z,10.53
2019-04-20T17:40:20.806Z,10.00
2019-04-20T17:42:41.580Z,10.68
2019-04-20T17:45:15.341Z,10.57
2019-04-20T17:48:03.152Z,9.47
2019-04-20T17:50:35.676Z,8.20
2019-04-20T17:53:08.730Z,10.07
2019-04-20T17:55:44.876Z,9.53
2019-04-20T17:58:20.936Z,12.47
2019-04-20T18:01:26.820Z,8.37
2019-04-20T18:04:18.726Z,9.80
2019-04-20T18:06:45.386Z,9.83
2019-04-20T18:09:13.293Z,7.87
2019-04-20T18:11:44.701Z,11.70
2019-04-20T18:14:43.167Z,10.80
2019-04-20T18:17:54.687Z,10.40
2019-04-20T18:20:27.975Z,9.67
2019-04-20T18:23:02.630Z,10.53
2019-04-20T18:25:59.111Z,12.20
2019-04-20T18:28:20.995Z,11.77
2019-04-20T18:31:11.278Z,9.27
2019-04-20T18:33:46.889Z,10.75
2019-04-20T18:36:28.821Z,13.93
2019-04-20T18:39:00.633Z,11.28
2019-04-20T18:41:39.629Z,14.90
2019-04-20T18:44:08.665Z,17.40
2019-04-20T18:47:13.559Z,11.67
2019-04-20T18:49:35.052Z,14.38
2019-04-20T18:51:55.536Z,12.13
2019-04-20T18:54:37.495Z,11.87
2019-04-20T18:57:14.507Z,9.97
2019-04-20T18:59:49.219Z,13.50
2019-04-20T19:02:26.552Z,13.08
2019-04-20T19:05:03.866Z,11.10
2019-04-20T19:07:42.506Z,9.17
2019-04-20T19:10:27.395Z,8.13
2019-04-20T19:13:05.880Z,11.27
2019-04-20T19:16:16.576Z,15.63
2019-04-20T19:19:17.969Z,12.20
2019-04-20T19:21:41.554Z,10.72
2019-04-20T19:24:20.281Z,9.90
2019-04-20T19:26:55.712Z,11.15
2019-04-20T19:29:34.555Z,12.27
2019-04-20T19:32:18.251Z,10.90
2019-04-20T19:34:50.080Z,9.90
2019-04-20T19:37:22.934Z,10.20
2019-04-20T19:40:02.927Z,8.70
2019-04-20T19:42:39.214Z,14.80
2019-04-20T19:45:27.592Z,10.63
2019-04-20T19:47:48.159Z,8.97
2019-04-20T19:50:36.740Z,8.37
2019-04-20T19:53:12.513Z,9.23
2019-04-20T19:55:37.804Z,11.23
2019-04-20T19:58:10.685Z,9.43
2019-04-20T20:00:50.814Z,9.30
2019-04-20T20:03:21.775Z,16.82
2019-04-20T20:05:54.803Z,9.77
2019-04-20T20:08:32.591Z,11.23
2019-04-20T20:11:05.019Z,11.60
2019-04-20T20:13:41.948Z,14.17
2019-04-20T20:17:06.666Z,9.33
2019-04-20T20:19:38.188Z,10.23
2019-04-20T20:22:09.373Z,10.43
2019-04-20T20:24:31.456Z,12.77
2019-04-20T20:27:24.228Z,10.70
2019-04-20T20:29:57.282Z,13.43
2019-04-20T20:32:31.290Z,10.37
2019-04-20T20:35:05.567Z,8.77
2019-04-20T20:37:39.452Z,7.73
2019-04-20T20:40:16.008Z,10.40
2019-04-20T20:42:52.602Z,10.43
2019-04-20T20:45:22.639Z,8.93
2019-04-20T20:48:15.471Z,9.63
2019-04-20T20:50:55.642Z,10.17
2019-04-20T20:53:22.957Z,8.23
2019-04-20T20:55:53.408Z,10.10
2019-04-20T20:58:33.694Z,11.27
2019-04-20T21:01:07.708Z,10.88
2019-04-20T21:03:37.965Z,11.03
2019-04-20T21:06:03.322Z,14.20
2019-04-20T21:08:45.415Z,12.67
2019-04-20T21:11:21.622Z,13.80
2019-04-20T21:13:48.637Z,12.10
2019-04-20T21:16:36.717Z,13.80
2019-04-20T21:19:43.606Z,15.15
2019-04-20T21:21:55.892Z,13.45
2019-04-20T21:24:33.948Z,12.57
2019-04-20T21:27:11.220Z,12.33
2019-04-20T21:29:52.562Z,13.17
2019-04-20T21:32:23.365Z,12.43
2019-04-20T21:34:58.547Z,14.57
2019-04-20T21:37:30.668Z,11.37
2019-04-20T21:40:14.022Z,14.03
2019-04-20T21:42:47.016Z,13.63
2019-04-20T21:45:20.100Z,13.10
2019-04-20T21:47:46.501Z,13.03
2019-04-20T21:50:35.112Z,13.53
2019-04-20T21:53:00.616Z,11.53
2019-04-20T21:55:30.034Z,15.87
2019-04-20T21:58:02.187Z,13.47
2019-04-20T22:00:42.466Z,9.93
2019-04-20T22:03:16.982Z,10.70
2019-04-20T22:05:48.467Z,9.03
2019-04-20T22:08:19.783Z,9.70
2019-04-20T22:10:50.539Z,13.00
2019-04-20T22:13:26.717Z,12.73
2019-04-20T22:16:01.420Z,15.27
2019-04-20T22:18:28.788Z,13.50
2019-04-20T22:21:09.434Z,13.03
2019-04-20T22:23:52.754Z,12.43
2019-04-20T22:26:20.819Z,13.67
2019-04-20T22:28:42.589Z,10.30
2019-04-20T22:31:14.106Z,12.20
2019-04-20T22:33:48.794Z,15.83
2019-04-20T22:36:24.074Z,12.83
2019-04-20T22:39:13.862Z,10.53
2019-04-20T22:41:56.721Z,10.77
2019-04-20T22:44:27.095Z,10.93
2019-04-20T22:47:00.347Z,9.57
2019-04-20T22:49:49.969Z,15.13
2019-04-20T22:52:26.734Z,11.73
2019-04-20T22:54:55.047Z,14.00
2019-04-20T22:57:31.666Z,11.60
2019-04-20T22:59:55.509Z,10.97
2019-04-20T23:02:22.965Z,10.98
2019-04-20T23:04:57.075Z,12.10
2019-04-20T23:07:30.774Z,10.83
2019-04-20T23:10:03.767Z,8.80
2019-04-20T23:12:44.960Z,11.83
2019-04-20T23:15:26.222Z,11.50
2019-04-20T23:17:57.976Z,10.10
2019-04-20T23:20:34.201Z,10.82
2019-04-20T23:23:04.947Z,8.70
2019-04-20T23:25:40.984Z,10.53
2019-04-20T23:28:18.070Z,13.77
2019-04-20T23:30:51.934Z,11.50
2019-04-20T23:33:20.122Z,12.57
2019-04-20T23:35:56.569Z,12.35
2019-04-20T23:38:26.441Z,10.97
2019-04-20T23:40:57.759Z,10.15
2019-04-20T23:43:37.573Z,13.08
2019-04-20T23:46:26.539Z,8.90
2019-04-20T23:49:31.844Z,10.27
2019-04-20T23:52:32.583Z,11.07
2019-04-20T23:54:49.027Z,11.03
2019-04-20T23:57:15.597Z,12.33
2019-04-20T23:59:54.943Z,12.70
